createdAt,value
2023-09-20T00:02:15.617Z,17.71
2023-09-20T00:04:44.786Z,17.76
2023-09-20T00:07:13.671Z,17.80
2023-09-20T00:09:43.765Z,17.84
2023-09-20T00:12:12.292Z,17.85
2023-09-20T00:14:40.392Z,17.89
2023-09-20T00:17:08.668Z,17.95
2023-09-20T00:19:41.390Z,17.94
2023-09-20T00:22:12.456Z,17.95
2023-09-20T00:24:40.764Z,17.96
2023-09-20T00:27:10.566Z,17.97
2023-09-20T00:29:39.141Z,17.98
2023-09-20T00:32:08.636Z,17.97
2023-09-20T00:34:37.446Z,17.92
2023-09-20T00:37:05.833Z,17.90
2023-09-20T00:39:33.968Z,17.84
2023-09-20T00:42:02.090Z,17.73
2023-09-20T00:44:32.067Z,17.68
2023-09-20T00:47:04.414Z,17.61
2023-09-20T00:49:34.165Z,17.57
2023-09-20T00:52:04.671Z,17.57
2023-09-20T00:54:33.059Z,17.59
2023-09-20T00:57:01.592Z,17.69
2023-09-20T00:59:32.499Z,17.80
2023-09-20T01:02:02.039Z,17.86
2023-09-20T01:04:31.217Z,17.94
2023-09-20T01:06:59.403Z,17.99
2023-09-20T01:09:27.570Z,18.01
2023-09-20T01:11:58.416Z,18.05
2023-09-20T01:14:28.671Z,18.04
2023-09-20T01:16:58.333Z,18.01
2023-09-20T01:19:26.455Z,17.91
2023-09-20T01:21:55.985Z,17.93
2023-09-20T01:24:26.096Z,17.86
2023-09-20T01:26:58.886Z,17.79
2023-09-20T01:29:27.045Z,17.73
2023-09-20T01:32:02.491Z,17.68
2023-09-20T01:34:31.276Z,17.61
2023-09-20T01:37:00.754Z,17.58
2023-09-20T01:39:28.834Z,17.56
2023-09-20T01:41:58.870Z,17.55
2023-09-20T01:44:29.065Z,17.55
2023-09-20T01:46:57.382Z,17.60
2023-09-20T01:49:25.743Z,17.66
2023-09-20T01:51:54.052Z,17.68
2023-09-20T01:54:23.914Z,17.69
2023-09-20T01:56:52.980Z,17.68
2023-09-20T01:59:22.767Z,17.68
2023-09-20T02:01:51.471Z,17.61
2023-09-20T02:04:22.096Z,17.56
2023-09-20T02:06:50.357Z,17.51
2023-09-20T02:09:19.843Z,17.47
2023-09-20T02:11:49.443Z,17.46
2023-09-20T02:14:17.862Z,17.47
2023-09-20T02:16:46.033Z,17.50
2023-09-20T02:19:14.979Z,17.56
2023-09-20T02:21:43.044Z,17.62
2023-09-20T02:24:11.164Z,17.58
2023-09-20T02:26:39.356Z,17.51
2023-09-20T02:29:09.515Z,17.46
2023-09-20T02:31:37.662Z,17.38
2023-09-20T02:34:06.011Z,17.34
2023-09-20T02:36:34.161Z,17.32
2023-09-20T02:39:02.250Z,17.31
2023-09-20T02:41:30.356Z,17.30
2023-09-20T02:43:58.457Z,17.26
2023-09-20T02:46:28.046Z,17.19
2023-09-20T02:48:56.141Z,17.12
2023-09-20T02:51:25.158Z,17.04
2023-09-20T02:53:53.387Z,17.00
2023-09-20T02:56:21.566Z,16.99
2023-09-20T02:58:50.005Z,16.95
2023-09-20T03:01:18.704Z,16.96
2023-09-20T03:03:48.371Z,16.98
2023-09-20T03:06:16.522Z,16.98
2023-09-20T03:08:46.260Z,16.98
2023-09-20T03:11:22.680Z,17.01
2023-09-20T03:13:50.960Z,17.03
2023-09-20T03:16:20.652Z,17.06
2023-09-20T03:18:51.638Z,17.00
2023-09-20T03:21:20.601Z,16.94
2023-09-20T03:23:48.804Z,16.85
2023-09-20T03:26:17.319Z,16.80
2023-09-20T03:28:47.774Z,16.75
2023-09-20T03:31:18.632Z,16.72
2023-09-20T03:33:49.410Z,16.67
2023-09-20T03:36:17.719Z,16.62
2023-09-20T03:38:46.849Z,16.57
2023-09-20T03:41:15.268Z,16.56
2023-09-20T03:43:43.441Z,16.56
2023-09-20T03:46:11.552Z,16.55
2023-09-20T03:48:40.038Z,16.59
2023-09-20T03:51:16.641Z,16.62
2023-09-20T03:53:45.205Z,16.66
2023-09-20T03:56:13.499Z,16.70
2023-09-20T03:58:41.816Z,16.71
2023-09-20T04:01:10.292Z,16.67
2023-09-20T04:03:38.484Z,16.64
2023-09-20T04:06:06.715Z,16.61
2023-09-20T04:08:36.256Z,16.59
2023-09-20T04:11:07.001Z,16.55
2023-09-20T04:13:35.297Z,16.54
2023-09-20T04:16:07.244Z,16.56
2023-09-20T04:18:35.454Z,16.57
2023-09-20T04:21:03.798Z,16.56
2023-09-20T04:23:33.629Z,16.52
2023-09-20T04:26:04.298Z,16.43
2023-09-20T04:28:32.529Z,16.41
2023-09-20T04:31:00.634Z,16.36
2023-09-20T04:33:28.770Z,16.42
2023-09-20T04:35:59.121Z,16.43
2023-09-20T04:38:27.244Z,16.43
2023-09-20T04:40:57.966Z,16.42
2023-09-20T04:43:28.396Z,16.38
2023-09-20T04:45:57.510Z,16.34
2023-09-20T04:48:25.699Z,16.32
2023-09-20T04:50:56.289Z,16.31
2023-09-20T04:53:24.678Z,16.24
2023-09-20T04:55:53.055Z,16.18
2023-09-20T04:58:21.568Z,16.15
2023-09-20T05:00:51.078Z,16.11
2023-09-20T05:03:20.807Z,16.07
2023-09-20T05:05:53.342Z,16.02
2023-09-20T05:08:21.947Z,15.97
2023-09-20T05:10:50.140Z,15.95
2023-09-20T05:13:19.774Z,15.93
2023-09-20T05:15:47.958Z,15.91
2023-09-20T05:18:17.612Z,15.87
2023-09-20T05:20:47.028Z,15.82
2023-09-20T05:23:15.445Z,15.85
2023-09-20T05:25:43.718Z,15.87
2023-09-20T05:28:11.841Z,15.89
2023-09-20T05:30:39.982Z,15.90
2023-09-20T05:33:08.719Z,15.89
2023-09-20T05:35:40.060Z,15.94
2023-09-20T05:38:08.286Z,16.01
2023-09-20T05:40:36.560Z,16.05
2023-09-20T05:43:05.530Z,16.06
2023-09-20T05:45:33.861Z,16.06
2023-09-20T05:48:02.614Z,16.06
2023-09-20T05:50:35.866Z,16.06
2023-09-20T05:53:07.521Z,16.03
2023-09-20T05:55:39.216Z,16.01
2023-09-20T05:58:07.523Z,15.99
2023-09-20T06:00:36.818Z,16.02
2023-09-20T06:03:06.305Z,16.01
2023-09-20T06:05:36.997Z,16.02
2023-09-20T06:08:08.783Z,16.03
2023-09-20T06:10:37.019Z,15.96
2023-09-20T06:13:06.784Z,15.90
2023-09-20T06:15:35.219Z,15.89
2023-09-20T06:18:04.066Z,15.93
2023-09-20T06:20:32.518Z,16.00
2023-09-20T06:23:00.824Z,16.09
2023-09-20T06:25:30.853Z,16.15
2023-09-20T06:27:58.961Z,16.24
2023-09-20T06:30:27.098Z,16.32
2023-09-20T06:32:55.433Z,16.42
2023-09-20T06:35:24.088Z,16.53
2023-09-20T06:37:52.861Z,16.59
2023-09-20T06:40:24.357Z,16.56
2023-09-20T06:42:54.554Z,16.57
2023-09-20T06:45:24.355Z,16.61
2023-09-20T06:47:52.697Z,16.60
2023-09-20T06:50:21.053Z,16.69
2023-09-20T06:52:49.760Z,16.75
2023-09-20T06:55:20.285Z,16.81
2023-09-20T06:57:50.070Z,16.78
2023-09-20T07:00:28.153Z,16.76
2023-09-20T07:02:58.349Z,16.80
2023-09-20T07:05:30.065Z,16.91
2023-09-20T07:08:00.235Z,17.09
2023-09-20T07:10:30.519Z,17.27
2023-09-20T07:12:58.958Z,17.36
2023-09-20T07:15:29.865Z,17.41
2023-09-20T07:18:02.247Z,17.40
2023-09-20T07:20:31.075Z,17.54
2023-09-20T07:23:00.185Z,17.74
2023-09-20T07:25:29.961Z,17.98
2023-09-20T07:28:00.617Z,18.35
2023-09-20T07:30:33.240Z,18.90
2023-09-20T07:33:12.392Z,19.09
2023-09-20T07:35:48.862Z,19.33
2023-09-20T07:38:27.772Z,20.01
2023-09-20T07:41:07.158Z,21.79
2023-09-20T07:43:35.569Z,24.03
2023-09-20T07:46:08.064Z,26.44
2023-09-20T07:48:39.715Z,28.80
2023-09-20T07:51:15.387Z,30.13
2023-09-20T07:53:46.085Z,30.51
2023-09-20T07:56:15.321Z,31.58
2023-09-20T07:58:45.860Z,32.82
2023-09-20T08:01:18.832Z,33.57
2023-09-20T08:03:53.271Z,32.96
2023-09-20T08:06:23.409Z,32.06
2023-09-20T08:08:51.664Z,31.54
2023-09-20T08:11:21.701Z,32.44
2023-09-20T08:13:51.839Z,33.19
2023-09-20T08:16:22.509Z,32.68
2023-09-20T08:19:17.876Z,32.72
2023-09-20T08:21:46.180Z,33.45
2023-09-20T08:24:31.932Z,34.18
2023-09-20T08:27:20.149Z,35.16
2023-09-20T08:30:05.804Z,35.79
2023-09-20T08:32:53.294Z,37.23
2023-09-20T08:35:38.950Z,38.55
2023-09-20T08:38:24.945Z,38.76
2023-09-20T08:41:10.941Z,37.75
2023-09-20T08:43:56.810Z,36.97
2023-09-20T10:35:22.890Z,37.24
2023-09-20T10:58:46.764Z,50.16
2023-09-20T11:18:43.368Z,32.06
2023-09-20T11:52:48.723Z,28.44
2023-09-20T12:33:10.255Z,28.65
2023-09-20T15:26:10.460Z,25.97
2023-09-20T18:42:43.608Z,22.61
2023-09-20T18:45:15.088Z,22.62
2023-09-20T18:47:45.014Z,22.66
2023-09-20T18:50:16.787Z,22.67
2023-09-20T18:52:47.457Z,22.68
2023-09-20T18:55:17.312Z,22.66
2023-09-20T18:57:52.532Z,22.66
2023-09-20T19:00:21.387Z,22.68
2023-09-20T19:02:50.547Z,22.68
2023-09-20T19:05:20.326Z,22.64
2023-09-20T19:07:49.652Z,22.63
2023-09-20T19:10:18.400Z,22.62
2023-09-20T19:12:47.967Z,22.61
2023-09-20T19:15:17.457Z,22.61
2023-09-20T19:17:45.839Z,22.61
2023-09-20T19:20:15.266Z,22.53
2023-09-20T19:22:44.988Z,22.52
2023-09-20T19:25:14.340Z,22.50
2023-09-20T19:27:42.934Z,22.52
2023-09-20T19:30:12.043Z,22.56
2023-09-20T19:32:43.986Z,22.54
2023-09-20T19:35:12.561Z,22.54
2023-09-20T19:37:40.759Z,22.54
2023-09-20T19:40:16.212Z,22.55
2023-09-20T19:42:46.785Z,22.56
2023-09-20T19:45:16.692Z,22.58
2023-09-20T19:47:47.502Z,22.55
2023-09-20T19:50:17.488Z,22.50
2023-09-20T19:52:48.855Z,22.43
2023-09-20T19:55:19.398Z,22.45
2023-09-20T19:57:47.668Z,22.46
2023-09-20T20:00:17.688Z,22.42
2023-09-20T20:02:49.914Z,22.36
2023-09-20T20:05:19.024Z,22.32
2023-09-20T20:07:48.331Z,22.28
2023-09-20T20:10:17.006Z,22.24
2023-09-20T20:12:46.211Z,22.19
2023-09-20T20:15:15.245Z,22.17
2023-09-20T20:17:45.257Z,22.17
2023-09-20T20:20:20.055Z,22.10
2023-09-20T20:22:54.607Z,22.02
2023-09-20T20:25:26.779Z,21.98
2023-09-20T20:27:58.861Z,21.93
2023-09-20T20:30:29.886Z,21.82
2023-09-20T20:32:59.371Z,21.77
2023-09-20T20:35:30.383Z,21.75
2023-09-20T20:37:59.647Z,21.75
2023-09-20T20:40:30.145Z,21.77
2023-09-20T20:42:59.728Z,21.81
2023-09-20T20:45:29.553Z,21.83
2023-09-20T20:47:58.677Z,21.82
2023-09-20T20:50:32.630Z,21.81
2023-09-20T20:53:01.382Z,21.81
2023-09-20T20:55:31.375Z,21.75
2023-09-20T20:58:02.086Z,21.68
2023-09-20T21:00:31.452Z,21.64
2023-09-20T21:03:02.317Z,21.62
2023-09-20T21:05:33.178Z,21.63
2023-09-20T21:08:03.569Z,21.66
2023-09-20T21:10:32.402Z,21.64
2023-09-20T21:13:03.102Z,21.65
2023-09-20T21:15:32.590Z,21.62
2023-09-20T21:18:01.140Z,21.61
2023-09-20T21:20:29.564Z,21.58
2023-09-20T21:23:01.404Z,21.52
2023-09-20T21:25:31.099Z,21.45
2023-09-20T21:28:00.507Z,21.39
2023-09-20T21:30:30.339Z,21.37
2023-09-20T21:33:00.653Z,21.36
2023-09-20T21:35:29.558Z,21.33
2023-09-20T21:37:59.613Z,21.33
2023-09-20T21:40:29.403Z,21.30
2023-09-20T21:42:59.073Z,21.23
2023-09-20T21:45:28.401Z,21.17
2023-09-20T21:47:57.022Z,21.13
2023-09-20T21:50:26.945Z,21.08
2023-09-20T21:52:55.921Z,21.01
2023-09-20T21:55:26.637Z,20.93
2023-09-20T21:57:54.882Z,20.84
2023-09-20T22:00:35.868Z,20.87
2023-09-20T22:03:06.142Z,20.81
2023-09-20T22:05:35.465Z,20.78
2023-09-20T22:08:08.633Z,20.75
2023-09-20T22:10:44.087Z,20.75
2023-09-20T22:13:12.824Z,20.71
2023-09-20T22:15:42.374Z,20.72
2023-09-20T22:18:18.935Z,20.74
2023-09-20T22:20:51.576Z,20.75
2023-09-20T22:23:21.329Z,20.76
2023-09-20T22:25:51.342Z,20.73
2023-09-20T22:28:20.238Z,20.71
2023-09-20T22:30:48.606Z,20.70
2023-09-20T22:33:18.026Z,20.69
2023-09-20T22:35:56.738Z,20.69
2023-09-20T22:38:31.287Z,20.72
2023-09-20T22:41:02.235Z,20.77
2023-09-20T22:43:31.798Z,20.81
2023-09-20T22:46:00.081Z,20.87
2023-09-20T22:48:29.562Z,20.96
2023-09-20T22:50:58.110Z,21.04
2023-09-20T22:53:26.986Z,21.10
2023-09-20T22:55:55.988Z,21.15
2023-09-20T22:58:26.069Z,21.16
2023-09-20T23:00:54.315Z,21.17
2023-09-20T23:03:25.537Z,21.14
2023-09-20T23:05:53.969Z,21.07
2023-09-20T23:08:23.830Z,20.96
2023-09-20T23:10:56.238Z,20.98
2023-09-20T23:13:27.011Z,21.00
2023-09-20T23:15:55.770Z,20.99
2023-09-20T23:18:25.965Z,20.95
2023-09-20T23:20:56.715Z,20.95
2023-09-20T23:23:26.474Z,20.84
2023-09-20T23:25:56.262Z,20.69
2023-09-20T23:28:25.799Z,20.61
2023-09-20T23:30:59.176Z,20.61
2023-09-20T23:33:36.781Z,20.64
2023-09-20T23:36:06.630Z,20.67
2023-09-20T23:38:39.920Z,20.67
2023-09-20T23:41:15.124Z,20.66
2023-09-20T23:43:46.723Z,20.63
2023-09-20T23:46:21.716Z,20.70
2023-09-20T23:48:52.099Z,20.73
2023-09-20T23:51:20.782Z,20.77
2023-09-20T23:53:49.967Z,20.75
2023-09-20T23:56:19.133Z,20.71
2023-09-20T23:58:50.127Z,20.67
